sensor_id;sensor_type;location;lat;lon;timestamp;temperature;humidity
18839;DHT22;9548;56.920;14.804;2022-11-20T00:00:18;-2.70;99.90
18839;DHT22;9548;56.920;14.804;2022-11-20T00:02:45;-2.70;99.90
18839;DHT22;9548;56.920;14.804;2022-11-20T00:05:13;-2.70;99.90
18839;DHT22;9548;56.920;14.804;2022-11-20T00:07:41;-2.70;99.90
18839;DHT22;9548;56.920;14.804;2022-11-20T00:10:08;-2.70;99.90
18839;DHT22;9548;56.920;14.804;2022-11-20T00:12:35;-2.60;99.90
18839;DHT22;9548;56.920;14.804;2022-11-20T00:15:03;-2.60;99.90
18839;DHT22;9548;56.920;14.804;2022-11-20T00:17:30;-2.60;99.90
18839;DHT22;9548;56.920;14.804;2022-11-20T00:19:57;-2.60;99.90
18839;DHT22;9548;56.920;14.804;2022-11-20T00:22:24;-2.60;99.90
18839;DHT22;9548;56.920;14.804;2022-11-20T00:24:52;-2.70;99.90
18839;DHT22;9548;56.920;14.804;2022-11-20T00:27:19;-2.70;99.90
18839;DHT22;9548;56.920;14.804;2022-11-20T00:29:46;-2.80;99.90
18839;DHT22;9548;56.920;14.804;2022-11-20T00:32:13;-2.70;99.90
18839;DHT22;9548;56.920;14.804;2022-11-20T00:34:40;-2.70;99.90
18839;DHT22;9548;56.920;14.804;2022-11-20T00:37:07;-2.70;99.90
18839;DHT22;9548;56.920;14.804;2022-11-20T00:39:34;-2.70;99.90
18839;DHT22;9548;56.920;14.804;2022-11-20T00:42:03;-2.70;99.90
18839;DHT22;9548;56.920;14.804;2022-11-20T00:44:30;-2.80;99.90
18839;DHT22;9548;56.920;14.804;2022-11-20T00:46:57;-2.80;99.90
18839;DHT22;9548;56.920;14.804;2022-11-20T00:49:24;-2.80;99.90
18839;DHT22;9548;56.920;14.804;2022-11-20T00:51:51;-2.70;99.90
18839;DHT22;9548;56.920;14.804;2022-11-20T00:54:18;-2.70;99.90
18839;DHT22;9548;56.920;14.804;2022-11-20T00:56:45;-2.70;99.90
18839;DHT22;9548;56.920;14.804;2022-11-20T00:59:14;-2.60;99.90
18839;DHT22;9548;56.920;14.804;2022-11-20T01:01:40;-2.60;99.90
18839;DHT22;9548;56.920;14.804;2022-11-20T01:04:08;-2.60;99.90
18839;DHT22;9548;56.920;14.804;2022-11-20T01:06:37;-2.50;99.90
18839;DHT22;9548;56.920;14.804;2022-11-20T01:09:06;-2.50;99.90
18839;DHT22;9548;56.920;14.804;2022-11-20T01:11:35;-2.50;99.90
18839;DHT22;9548;56.920;14.804;2022-11-20T01:14:04;-2.50;99.90
18839;DHT22;9548;56.920;14.804;2022-11-20T01:16:34;-2.40;99.90
18839;DHT22;9548;56.920;14.804;2022-11-20T01:19:03;-2.40;99.90
18839;DHT22;9548;56.920;14.804;2022-11-20T01:21:32;-2.40;99.90
18839;DHT22;9548;56.920;14.804;2022-11-20T01:24:00;-2.40;99.90
18839;DHT22;9548;56.920;14.804;2022-11-20T01:26:29;-2.50;99.90
18839;DHT22;9548;56.920;14.804;2022-11-20T01:28:56;-2.50;99.90
18839;DHT22;9548;56.920;14.804;2022-11-20T01:31:25;-2.50;99.90
18839;DHT22;9548;56.920;14.804;2022-11-20T01:33:55;-2.60;99.90
18839;DHT22;9548;56.920;14.804;2022-11-20T01:36:25;-2.60;99.90
18839;DHT22;9548;56.920;14.804;2022-11-20T01:38:52;-2.70;99.90
18839;DHT22;9548;56.920;14.804;2022-11-20T01:41:21;-2.70;99.90
18839;DHT22;9548;56.920;14.804;2022-11-20T01:44:06;-2.70;99.90
18839;DHT22;9548;56.920;14.804;2022-11-20T01:46:34;-2.70;99.90
18839;DHT22;9548;56.920;14.804;2022-11-20T01:49:08;-2.70;99.90
18839;DHT22;9548;56.920;14.804;2022-11-20T01:51:41;-2.70;99.90
18839;DHT22;9548;56.920;14.804;2022-11-20T01:54:12;-2.70;99.90
18839;DHT22;9548;56.920;14.804;2022-11-20T01:56:43;-2.80;99.90
18839;DHT22;9548;56.920;14.804;2022-11-20T01:59:13;-2.80;99.90
18839;DHT22;9548;56.920;14.804;2022-11-20T02:01:41;-2.80;99.90
18839;DHT22;9548;56.920;14.804;2022-11-20T02:04:10;-2.80;99.90
18839;DHT22;9548;56.920;14.804;2022-11-20T02:06:42;-2.90;99.90
18839;DHT22;9548;56.920;14.804;2022-11-20T02:09:10;-2.90;99.90
18839;DHT22;9548;56.920;14.804;2022-11-20T02:11:37;-2.90;99.90
18839;DHT22;9548;56.920;14.804;2022-11-20T02:14:05;-2.90;99.90
18839;DHT22;9548;56.920;14.804;2022-11-20T02:16:33;-2.80;99.90
18839;DHT22;9548;56.920;14.804;2022-11-20T02:19:04;-2.80;99.90
18839;DHT22;9548;56.920;14.804;2022-11-20T02:21:39;-2.80;99.90
18839;DHT22;9548;56.920;14.804;2022-11-20T02:24:10;-2.80;99.90
18839;DHT22;9548;56.920;14.804;2022-11-20T02:26:48;-2.70;99.90
18839;DHT22;9548;56.920;14.804;2022-11-20T02:29:19;-2.70;99.90
18839;DHT22;9548;56.920;14.804;2022-11-20T02:31:49;-2.60;99.90
18839;DHT22;9548;56.920;14.804;2022-11-20T02:34:16;-2.70;99.90
18839;DHT22;9548;56.920;14.804;2022-11-20T02:36:43;-2.70;99.90
18839;DHT22;9548;56.920;14.804;2022-11-20T02:39:13;-2.70;99.90
18839;DHT22;9548;56.920;14.804;2022-11-20T02:41:42;-2.60;99.90
18839;DHT22;9548;56.920;14.804;2022-11-20T02:44:09;-2.60;99.90
18839;DHT22;9548;56.920;14.804;2022-11-20T02:46:36;-2.50;99.90
18839;DHT22;9548;56.920;14.804;2022-11-20T02:49:04;-2.50;99.90
18839;DHT22;9548;56.920;14.804;2022-11-20T02:51:32;-2.50;99.90
18839;DHT22;9548;56.920;14.804;2022-11-20T02:53:59;-2.50;99.90
18839;DHT22;9548;56.920;14.804;2022-11-20T02:56:28;-2.50;99.90
18839;DHT22;9548;56.920;14.804;2022-11-20T02:58:55;-2.50;99.90
18839;DHT22;9548;56.920;14.804;2022-11-20T03:01:22;-2.40;99.90
18839;DHT22;9548;56.920;14.804;2022-11-20T03:03:49;-2.40;99.90
18839;DHT22;9548;56.920;14.804;2022-11-20T03:06:16;-2.40;99.90
18839;DHT22;9548;56.920;14.804;2022-11-20T03:08:43;-2.40;99.90
18839;DHT22;9548;56.920;14.804;2022-11-20T03:11:11;-2.30;99.90
18839;DHT22;9548;56.920;14.804;2022-11-20T03:13:39;-2.40;99.90
18839;DHT22;9548;56.920;14.804;2022-11-20T03:16:11;-2.30;99.90
18839;DHT22;9548;56.920;14.804;2022-11-20T03:18:38;-2.20;99.90
18839;DHT22;9548;56.920;14.804;2022-11-20T03:21:06;-2.20;99.90
18839;DHT22;9548;56.920;14.804;2022-11-20T03:23:33;-2.20;99.90
18839;DHT22;9548;56.920;14.804;2022-11-20T03:26:11;-2.30;99.90
18839;DHT22;9548;56.920;14.804;2022-11-20T03:28:41;-2.30;99.90
18839;DHT22;9548;56.920;14.804;2022-11-20T03:31:10;-2.40;99.90
18839;DHT22;9548;56.920;14.804;2022-11-20T03:33:37;-2.40;99.90
18839;DHT22;9548;56.920;14.804;2022-11-20T03:36:07;-2.40;99.90
18839;DHT22;9548;56.920;14.804;2022-11-20T03:38:34;-2.40;99.90
18839;DHT22;9548;56.920;14.804;2022-11-20T03:41:03;-2.30;99.90
18839;DHT22;9548;56.920;14.804;2022-11-20T03:43:30;-2.30;99.90
18839;DHT22;9548;56.920;14.804;2022-11-20T03:45:58;-2.30;99.90
18839;DHT22;9548;56.920;14.804;2022-11-20T03:48:26;-2.30;99.90
18839;DHT22;9548;56.920;14.804;2022-11-20T03:51:05;-2.40;99.90
18839;DHT22;9548;56.920;14.804;2022-11-20T03:53:33;-2.40;99.90
18839;DHT22;9548;56.920;14.804;2022-11-20T03:56:00;-2.40;99.90
18839;DHT22;9548;56.920;14.804;2022-11-20T03:58:27;-2.40;99.90
18839;DHT22;9548;56.920;14.804;2022-11-20T04:00:54;-2.30;99.90
18839;DHT22;9548;56.920;14.804;2022-11-20T04:03:22;-2.20;99.90
18839;DHT22;9548;56.920;14.804;2022-11-20T04:05:49;-2.10;99.90
18839;DHT22;9548;56.920;14.804;2022-11-20T04:08:16;-2.10;99.90
18839;DHT22;9548;56.920;14.804;2022-11-20T04:10:42;-2.00;99.90
18839;DHT22;9548;56.920;14.804;2022-11-20T04:13:09;-2.00;99.90
18839;DHT22;9548;56.920;14.804;2022-11-20T04:15:36;-1.90;99.90
18839;DHT22;9548;56.920;14.804;2022-11-20T04:18:03;-1.90;99.90
18839;DHT22;9548;56.920;14.804;2022-11-20T04:20:31;-1.90;99.90
18839;DHT22;9548;56.920;14.804;2022-11-20T04:22:58;-1.90;99.90
18839;DHT22;9548;56.920;14.804;2022-11-20T04:25:25;-1.90;99.90
18839;DHT22;9548;56.920;14.804;2022-11-20T04:27:52;-1.90;99.90
18839;DHT22;9548;56.920;14.804;2022-11-20T04:30:19;-1.90;99.90
18839;DHT22;9548;56.920;14.804;2022-11-20T04:32:46;-1.90;99.90
18839;DHT22;9548;56.920;14.804;2022-11-20T04:35:13;-1.80;99.90
18839;DHT22;9548;56.920;14.804;2022-11-20T04:37:41;-1.90;99.90
18839;DHT22;9548;56.920;14.804;2022-11-20T04:40:09;-1.90;99.90
18839;DHT22;9548;56.920;14.804;2022-11-20T04:42:36;-2.00;99.90
18839;DHT22;9548;56.920;14.804;2022-11-20T04:45:03;-2.00;99.90
18839;DHT22;9548;56.920;14.804;2022-11-20T04:47:30;-2.10;99.90
18839;DHT22;9548;56.920;14.804;2022-11-20T04:49:57;-2.10;99.90
18839;DHT22;9548;56.920;14.804;2022-11-20T04:52:24;-2.20;99.90
18839;DHT22;9548;56.920;14.804;2022-11-20T04:54:52;-2.20;99.90
18839;DHT22;9548;56.920;14.804;2022-11-20T04:57:20;-2.30;99.90
18839;DHT22;9548;56.920;14.804;2022-11-20T04:59:47;-2.30;99.90
18839;DHT22;9548;56.920;14.804;2022-11-20T05:02:14;-2.30;99.90
18839;DHT22;9548;56.920;14.804;2022-11-20T05:04:40;-2.20;99.90
18839;DHT22;9548;56.920;14.804;2022-11-20T05:07:07;-2.20;99.90
18839;DHT22;9548;56.920;14.804;2022-11-20T05:09:34;-2.20;99.90
18839;DHT22;9548;56.920;14.804;2022-11-20T05:12:03;-2.30;99.90
18839;DHT22;9548;56.920;14.804;2022-11-20T05:14:30;-2.20;99.90
18839;DHT22;9548;56.920;14.804;2022-11-20T05:16:57;-2.20;99.90
18839;DHT22;9548;56.920;14.804;2022-11-20T05:19:24;-2.20;99.90
18839;DHT22;9548;56.920;14.804;2022-11-20T05:21:51;-2.30;99.90
18839;DHT22;9548;56.920;14.804;2022-11-20T05:24:18;-2.30;99.90
18839;DHT22;9548;56.920;14.804;2022-11-20T05:26:44;-2.40;99.90
18839;DHT22;9548;56.920;14.804;2022-11-20T05:29:13;-2.50;99.90
18839;DHT22;9548;56.920;14.804;2022-11-20T05:31:40;-2.50;99.90
18839;DHT22;9548;56.920;14.804;2022-11-20T05:34:08;-2.50;99.90
18839;DHT22;9548;56.920;14.804;2022-11-20T05:36:35;-2.50;99.90
18839;DHT22;9548;56.920;14.804;2022-11-20T05:39:02;-2.50;99.90
18839;DHT22;9548;56.920;14.804;2022-11-20T05:41:29;-2.60;99.90
18839;DHT22;9548;56.920;14.804;2022-11-20T05:43:56;-2.60;99.90
18839;DHT22;9548;56.920;14.804;2022-11-20T05:46:25;-2.60;99.90
18839;DHT22;9548;56.920;14.804;2022-11-20T05:48:52;-2.70;99.90
18839;DHT22;9548;56.920;14.804;2022-11-20T05:51:20;-2.70;99.90
18839;DHT22;9548;56.920;14.804;2022-11-20T05:53:47;-2.80;99.90
18839;DHT22;9548;56.920;14.804;2022-11-20T05:56:16;-2.80;99.90
18839;DHT22;9548;56.920;14.804;2022-11-20T05:58:43;-2.70;99.90
18839;DHT22;9548;56.920;14.804;2022-11-20T06:01:16;-2.80;99.90
18839;DHT22;9548;56.920;14.804;2022-11-20T06:03:45;-2.80;99.90
18839;DHT22;9548;56.920;14.804;2022-11-20T06:06:13;-2.80;99.90
18839;DHT22;9548;56.920;14.804;2022-11-20T06:08:41;-2.80;99.90
18839;DHT22;9548;56.920;14.804;2022-11-20T06:11:09;-2.90;99.90
18839;DHT22;9548;56.920;14.804;2022-11-20T06:13:37;-2.80;99.90
18839;DHT22;9548;56.920;14.804;2022-11-20T06:16:04;-2.90;99.90
18839;DHT22;9548;56.920;14.804;2022-11-20T06:18:32;-2.80;99.90
18839;DHT22;9548;56.920;14.804;2022-11-20T06:21:01;-2.70;99.90
18839;DHT22;9548;56.920;14.804;2022-11-20T06:23:30;-2.60;99.90
18839;DHT22;9548;56.920;14.804;2022-11-20T06:25:57;-2.60;99.90
18839;DHT22;9548;56.920;14.804;2022-11-20T06:28:24;-2.50;99.90
18839;DHT22;9548;56.920;14.804;2022-11-20T06:30:51;-2.50;99.90
18839;DHT22;9548;56.920;14.804;2022-11-20T06:33:18;-2.50;99.90
18839;DHT22;9548;56.920;14.804;2022-11-20T06:35:45;-2.50;99.90
18839;DHT22;9548;56.920;14.804;2022-11-20T06:38:13;-2.50;99.90
18839;DHT22;9548;56.920;14.804;2022-11-20T06:40:40;-2.40;99.90
18839;DHT22;9548;56.920;14.804;2022-11-20T06:43:07;-2.30;99.90
18839;DHT22;9548;56.920;14.804;2022-11-20T06:45:34;-2.30;99.90
18839;DHT22;9548;56.920;14.804;2022-11-20T06:48:01;-2.20;99.90
18839;DHT22;9548;56.920;14.804;2022-11-20T06:50:28;-2.20;99.90
18839;DHT22;9548;56.920;14.804;2022-11-20T06:52:55;-2.20;99.90
18839;DHT22;9548;56.920;14.804;2022-11-20T06:55:23;-2.10;99.90
18839;DHT22;9548;56.920;14.804;2022-11-20T06:57:50;-2.10;99.90
18839;DHT22;9548;56.920;14.804;2022-11-20T07:00:17;-2.10;99.90
18839;DHT22;9548;56.920;14.804;2022-11-20T07:02:44;-2.00;99.90
18839;DHT22;9548;56.920;14.804;2022-11-20T07:05:11;-2.00;99.90
18839;DHT22;9548;56.920;14.804;2022-11-20T07:07:38;-2.00;99.90
18839;DHT22;9548;56.920;14.804;2022-11-20T07:10:06;-2.00;99.90
18839;DHT22;9548;56.920;14.804;2022-11-20T07:12:34;-2.00;99.90
18839;DHT22;9548;56.920;14.804;2022-11-20T07:15:01;-1.90;99.90
18839;DHT22;9548;56.920;14.804;2022-11-20T07:17:28;-1.90;99.90
18839;DHT22;9548;56.920;14.804;2022-11-20T07:19:55;-1.90;99.90
18839;DHT22;9548;56.920;14.804;2022-11-20T07:22:22;-1.90;99.90
18839;DHT22;9548;56.920;14.804;2022-11-20T07:24:49;-1.90;99.90
18839;DHT22;9548;56.920;14.804;2022-11-20T07:27:16;-1.90;99.90
18839;DHT22;9548;56.920;14.804;2022-11-20T07:29:44;-1.90;99.90
18839;DHT22;9548;56.920;14.804;2022-11-20T07:32:11;-1.90;99.90
18839;DHT22;9548;56.920;14.804;2022-11-20T07:34:38;-1.90;99.90
18839;DHT22;9548;56.920;14.804;2022-11-20T07:37:05;-1.90;99.90
18839;DHT22;9548;56.920;14.804;2022-11-20T07:39:31;-1.80;99.90
18839;DHT22;9548;56.920;14.804;2022-11-20T07:41:58;-1.80;99.90
18839;DHT22;9548;56.920;14.804;2022-11-20T07:44:25;-1.80;99.90
18839;DHT22;9548;56.920;14.804;2022-11-20T07:46:53;-1.70;99.90
18839;DHT22;9548;56.920;14.804;2022-11-20T07:49:20;-1.70;99.90
18839;DHT22;9548;56.920;14.804;2022-11-20T07:51:50;-1.60;99.90
18839;DHT22;9548;56.920;14.804;2022-11-20T07:54:17;-1.60;99.90
18839;DHT22;9548;56.920;14.804;2022-11-20T07:56:44;-1.60;99.90
18839;DHT22;9548;56.920;14.804;2022-11-20T07:59:10;-1.60;99.90
18839;DHT22;9548;56.920;14.804;2022-11-20T08:01:38;-1.50;99.90
18839;DHT22;9548;56.920;14.804;2022-11-20T08:04:07;-1.50;99.90
18839;DHT22;9548;56.920;14.804;2022-11-20T08:06:34;-1.40;99.90
18839;DHT22;9548;56.920;14.804;2022-11-20T08:09:03;-1.40;99.90
18839;DHT22;9548;56.920;14.804;2022-11-20T08:11:30;-1.30;99.90
18839;DHT22;9548;56.920;14.804;2022-11-20T08:14:14;-1.30;99.90
18839;DHT22;9548;56.920;14.804;2022-11-20T08:16:42;-1.30;99.90
18839;DHT22;9548;56.920;14.804;2022-11-20T08:19:11;-1.20;99.90
18839;DHT22;9548;56.920;14.804;2022-11-20T08:21:39;-1.10;99.90
18839;DHT22;9548;56.920;14.804;2022-11-20T08:24:06;-1.10;99.90
18839;DHT22;9548;56.920;14.804;2022-11-20T08:26:33;-1.10;99.90
18839;DHT22;9548;56.920;14.804;2022-11-20T08:29:00;-1.00;99.90
18839;DHT22;9548;56.920;14.804;2022-11-20T08:31:27;-1.00;99.90
18839;DHT22;9548;56.920;14.804;2022-11-20T08:33:55;-0.90;99.90
18839;DHT22;9548;56.920;14.804;2022-11-20T08:36:24;-0.80;99.90
18839;DHT22;9548;56.920;14.804;2022-11-20T08:38:53;-0.80;99.90
18839;DHT22;9548;56.920;14.804;2022-11-20T08:41:20;-0.70;99.90
18839;DHT22;9548;56.920;14.804;2022-11-20T08:43:53;-0.70;99.90
18839;DHT22;9548;56.920;14.804;2022-11-20T08:46:20;-0.60;99.90
18839;DHT22;9548;56.920;14.804;2022-11-20T08:48:47;-0.50;99.90
18839;DHT22;9548;56.920;14.804;2022-11-20T08:51:14;-0.50;99.90
18839;DHT22;9548;56.920;14.804;2022-11-20T08:53:42;-0.50;99.90
18839;DHT22;9548;56.920;14.804;2022-11-20T08:56:10;-0.50;99.90
18839;DHT22;9548;56.920;14.804;2022-11-20T08:58:37;-0.40;99.90
18839;DHT22;9548;56.920;14.804;2022-11-20T09:01:04;-0.40;99.90
18839;DHT22;9548;56.920;14.804;2022-11-20T09:03:31;-0.40;99.90
18839;DHT22;9548;56.920;14.804;2022-11-20T09:05:58;-0.30;99.90
18839;DHT22;9548;56.920;14.804;2022-11-20T09:08:26;-0.30;99.90
18839;DHT22;9548;56.920;14.804;2022-11-20T09:10:56;-0.30;99.90
18839;DHT22;9548;56.920;14.804;2022-11-20T09:13:23;-0.30;99.90
18839;DHT22;9548;56.920;14.804;2022-11-20T09:15:53;-0.30;99.90
18839;DHT22;9548;56.920;14.804;2022-11-20T09:18:21;-0.30;99.90
18839;DHT22;9548;56.920;14.804;2022-11-20T09:20:49;-0.30;99.90
18839;DHT22;9548;56.920;14.804;2022-11-20T09:23:16;-0.20;99.90
18839;DHT22;9548;56.920;14.804;2022-11-20T09:25:43;-0.20;99.90
18839;DHT22;9548;56.920;14.804;2022-11-20T09:28:12;-0.10;99.90
18839;DHT22;9548;56.920;14.804;2022-11-20T09:30:39;-0.10;99.90
18839;DHT22;9548;56.920;14.804;2022-11-20T09:33:06;-0.10;99.90
18839;DHT22;9548;56.920;14.804;2022-11-20T09:35:34;0.00;99.90
18839;DHT22;9548;56.920;14.804;2022-11-20T09:38:05;0.00;99.90
18839;DHT22;9548;56.920;14.804;2022-11-20T09:40:32;0.00;99.90
18839;DHT22;9548;56.920;14.804;2022-11-20T09:43:04;0.00;99.90
18839;DHT22;9548;56.920;14.804;2022-11-20T09:45:47;0.00;99.90
18839;DHT22;9548;56.920;14.804;2022-11-20T09:48:43;0.10;99.90
18839;DHT22;9548;56.920;14.804;2022-11-20T09:51:17;0.20;99.90
18839;DHT22;9548;56.920;14.804;2022-11-20T09:54:00;0.20;99.90
18839;DHT22;9548;56.920;14.804;2022-11-20T09:56:30;0.30;99.90
18839;DHT22;9548;56.920;14.804;2022-11-20T09:59:01;0.40;99.90
18839;DHT22;9548;56.920;14.804;2022-11-20T10:01:33;0.50;99.90
18839;DHT22;9548;56.920;14.804;2022-11-20T10:04:03;0.50;99.90
18839;DHT22;9548;56.920;14.804;2022-11-20T10:06:32;0.50;99.90
18839;DHT22;9548;56.920;14.804;2022-11-20T10:09:13;0.60;99.90
18839;DHT22;9548;56.920;14.804;2022-11-20T10:11:48;0.60;99.90
18839;DHT22;9548;56.920;14.804;2022-11-20T10:14:26;0.70;99.90
18839;DHT22;9548;56.920;14.804;2022-11-20T10:17:02;0.80;99.90
18839;DHT22;9548;56.920;14.804;2022-11-20T10:19:40;0.90;99.90
18839;DHT22;9548;56.920;14.804;2022-11-20T10:22:22;1.00;99.90
18839;DHT22;9548;56.920;14.804;2022-11-20T10:24:55;1.10;99.90
18839;DHT22;9548;56.920;14.804;2022-11-20T10:27:50;1.10;99.90
18839;DHT22;9548;56.920;14.804;2022-11-20T10:30:20;1.10;99.90
18839;DHT22;9548;56.920;14.804;2022-11-20T10:32:54;1.20;99.90
18839;DHT22;9548;56.920;14.804;2022-11-20T10:35:26;1.20;99.90
18839;DHT22;9548;56.920;14.804;2022-11-20T10:37:57;1.20;99.90
18839;DHT22;9548;56.920;14.804;2022-11-20T10:40:32;1.20;99.90
18839;DHT22;9548;56.920;14.804;2022-11-20T10:43:03;1.20;99.90
18839;DHT22;9548;56.920;14.804;2022-11-20T10:45:40;1.20;99.90
18839;DHT22;9548;56.920;14.804;2022-11-20T10:48:16;1.20;99.90
18839;DHT22;9548;56.920;14.804;2022-11-20T10:50:59;1.10;99.90
18839;DHT22;9548;56.920;14.804;2022-11-20T10:53:44;1.10;99.90
18839;DHT22;9548;56.920;14.804;2022-11-20T10:56:19;1.20;99.90
18839;DHT22;9548;56.920;14.804;2022-11-20T10:58:56;1.20;99.90
18839;DHT22;9548;56.920;14.804;2022-11-20T11:01:27;1.30;99.90
18839;DHT22;9548;56.920;14.804;2022-11-20T11:03:55;1.20;99.90
18839;DHT22;9548;56.920;14.804;2022-11-20T11:06:29;1.30;99.90
18839;DHT22;9548;56.920;14.804;2022-11-20T11:09:02;1.20;99.90
18839;DHT22;9548;56.920;14.804;2022-11-20T11:11:32;1.30;99.90
18839;DHT22;9548;56.920;14.804;2022-11-20T11:14:06;1.30;99.90
18839;DHT22;9548;56.920;14.804;2022-11-20T11:16:33;1.30;99.90
18839;DHT22;9548;56.920;14.804;2022-11-20T11:19:07;1.20;99.90
18839;DHT22;9548;56.920;14.804;2022-11-20T11:21:37;1.20;99.90
18839;DHT22;9548;56.920;14.804;2022-11-20T11:24:19;1.30;99.90
18839;DHT22;9548;56.920;14.804;2022-11-20T11:26:52;1.30;99.90
18839;DHT22;9548;56.920;14.804;2022-11-20T11:29:19;1.30;99.90
18839;DHT22;9548;56.920;14.804;2022-11-20T11:31:46;1.40;99.90
18839;DHT22;9548;56.920;14.804;2022-11-20T11:34:16;1.50;99.90
18839;DHT22;9548;56.920;14.804;2022-11-20T11:36:50;1.60;99.90
18839;DHT22;9548;56.920;14.804;2022-11-20T11:39:20;1.60;99.90
18839;DHT22;9548;56.920;14.804;2022-11-20T11:45:51;1.50;99.90
18839;DHT22;9548;56.920;14.804;2022-11-20T11:48:19;1.40;99.90
18839;DHT22;9548;56.920;14.804;2022-11-20T11:50:49;1.40;99.90
18839;DHT22;9548;56.920;14.804;2022-11-20T11:53:17;1.40;99.90
18839;DHT22;9548;56.920;14.804;2022-11-20T11:55:47;1.30;99.90
18839;DHT22;9548;56.920;14.804;2022-11-20T11:58:34;1.40;99.90
18839;DHT22;9548;56.920;14.804;2022-11-20T12:01:20;1.40;99.90
18839;DHT22;9548;56.920;14.804;2022-11-20T12:03:55;1.40;99.90
18839;DHT22;9548;56.920;14.804;2022-11-20T12:06:26;1.50;99.90
18839;DHT22;9548;56.920;14.804;2022-11-20T12:08:57;1.50;99.90
18839;DHT22;9548;56.920;14.804;2022-11-20T12:11:31;1.60;99.90
18839;DHT22;9548;56.920;14.804;2022-11-20T12:14:04;1.60;99.90
18839;DHT22;9548;56.920;14.804;2022-11-20T12:16:39;1.60;99.90
18839;DHT22;9548;56.920;14.804;2022-11-20T12:19:09;1.70;99.90
18839;DHT22;9548;56.920;14.804;2022-11-20T12:21:45;1.80;99.90
18839;DHT22;9548;56.920;14.804;2022-11-20T12:24:35;1.90;99.90
18839;DHT22;9548;56.920;14.804;2022-11-20T12:29:56;2.10;99.90
18839;DHT22;9548;56.920;14.804;2022-11-20T12:32:51;2.10;99.90
18839;DHT22;9548;56.920;14.804;2022-11-20T12:35:36;2.10;99.90
18839;DHT22;9548;56.920;14.804;2022-11-20T12:38:31;2.00;99.90
18839;DHT22;9548;56.920;14.804;2022-11-20T12:41:07;1.90;99.90
18839;DHT22;9548;56.920;14.804;2022-11-20T12:43:41;1.90;99.90
18839;DHT22;9548;56.920;14.804;2022-11-20T12:46:34;1.90;99.90
18839;DHT22;9548;56.920;14.804;2022-11-20T12:49:23;1.90;99.90
18839;DHT22;9548;56.920;14.804;2022-11-20T12:52:15;1.90;99.90
18839;DHT22;9548;56.920;14.804;2022-11-20T12:55:04;2.00;99.90
18839;DHT22;9548;56.920;14.804;2022-11-20T12:57:41;2.00;99.90
18839;DHT22;9548;56.920;14.804;2022-11-20T13:00:15;1.90;99.90
18839;DHT22;9548;56.920;14.804;2022-11-20T13:03:22;2.00;99.90
18839;DHT22;9548;56.920;14.804;2022-11-20T13:06:01;2.00;99.90
18839;DHT22;9548;56.920;14.804;2022-11-20T13:08:34;1.90;99.90
18839;DHT22;9548;56.920;14.804;2022-11-20T13:11:07;1.90;99.90
18839;DHT22;9548;56.920;14.804;2022-11-20T13:13:47;1.90;99.90
18839;DHT22;9548;56.920;14.804;2022-11-20T13:16:22;1.90;99.90
18839;DHT22;9548;56.920;14.804;2022-11-20T13:18:50;1.80;99.90
18839;DHT22;9548;56.920;14.804;2022-11-20T13:21:21;1.80;99.90
18839;DHT22;9548;56.920;14.804;2022-11-20T13:23:49;1.80;99.90
18839;DHT22;9548;56.920;14.804;2022-11-20T13:26:18;1.80;99.90
18839;DHT22;9548;56.920;14.804;2022-11-20T13:28:47;1.70;99.90
18839;DHT22;9548;56.920;14.804;2022-11-20T13:31:33;1.80;99.90
18839;DHT22;9548;56.920;14.804;2022-11-20T13:34:03;1.80;99.90
18839;DHT22;9548;56.920;14.804;2022-11-20T13:36:31;1.80;99.90
18839;DHT22;9548;56.920;14.804;2022-11-20T13:39:00;1.70;99.90
18839;DHT22;9548;56.920;14.804;2022-11-20T13:41:29;1.70;99.90
18839;DHT22;9548;56.920;14.804;2022-11-20T13:44:05;1.70;99.90
18839;DHT22;9548;56.920;14.804;2022-11-20T13:46:37;1.60;99.90
18839;DHT22;9548;56.920;14.804;2022-11-20T13:49:09;1.50;99.90
18839;DHT22;9548;56.920;14.804;2022-11-20T13:51:42;1.50;99.90
18839;DHT22;9548;56.920;14.804;2022-11-20T13:54:22;1.40;99.90
18839;DHT22;9548;56.920;14.804;2022-11-20T13:57:01;1.30;99.90
18839;DHT22;9548;56.920;14.804;2022-11-20T13:59:43;1.10;99.90
18839;DHT22;9548;56.920;14.804;2022-11-20T14:02:15;1.10;99.90
18839;DHT22;9548;56.920;14.804;2022-11-20T14:04:44;1.00;99.90
18839;DHT22;9548;56.920;14.804;2022-11-20T14:07:14;0.90;99.90
18839;DHT22;9548;56.920;14.804;2022-11-20T14:09:50;0.80;99.90
18839;DHT22;9548;56.920;14.804;2022-11-20T14:12:20;0.80;99.90
18839;DHT22;9548;56.920;14.804;2022-11-20T14:14:48;0.70;99.90
18839;DHT22;9548;56.920;14.804;2022-11-20T14:17:19;0.60;99.90
18839;DHT22;9548;56.920;14.804;2022-11-20T14:19:48;0.60;99.90
18839;DHT22;9548;56.920;14.804;2022-11-20T14:22:20;0.50;99.90
18839;DHT22;9548;56.920;14.804;2022-11-20T14:24:48;0.40;99.90
18839;DHT22;9548;56.920;14.804;2022-11-20T14:27:17;0.30;99.90
18839;DHT22;9548;56.920;14.804;2022-11-20T14:29:46;0.20;99.90
18839;DHT22;9548;56.920;14.804;2022-11-20T14:32:16;0.20;99.90
18839;DHT22;9548;56.920;14.804;2022-11-20T14:34:47;0.10;99.90
18839;DHT22;9548;56.920;14.804;2022-11-20T14:37:20;0.10;99.90
18839;DHT22;9548;56.920;14.804;2022-11-20T14:39:50;0.10;99.90
18839;DHT22;9548;56.920;14.804;2022-11-20T14:42:20;0.10;99.90
18839;DHT22;9548;56.920;14.804;2022-11-20T14:44:48;0.00;99.90
18839;DHT22;9548;56.920;14.804;2022-11-20T14:47:19;0.00;99.90
18839;DHT22;9548;56.920;14.804;2022-11-20T14:49:48;-0.10;99.90
18839;DHT22;9548;56.920;14.804;2022-11-20T14:52:19;-0.10;99.90
18839;DHT22;9548;56.920;14.804;2022-11-20T14:54:49;-0.10;99.90
18839;DHT22;9548;56.920;14.804;2022-11-20T14:57:26;-0.20;99.90
18839;DHT22;9548;56.920;14.804;2022-11-20T15:00:18;-0.10;99.90
18839;DHT22;9548;56.920;14.804;2022-11-20T15:02:47;-0.10;99.90
18839;DHT22;9548;56.920;14.804;2022-11-20T15:05:16;-0.20;99.90
18839;DHT22;9548;56.920;14.804;2022-11-20T15:07:46;-0.30;99.90
18839;DHT22;9548;56.920;14.804;2022-11-20T15:10:20;-0.30;99.90
18839;DHT22;9548;56.920;14.804;2022-11-20T15:12:49;-0.30;99.90
18839;DHT22;9548;56.920;14.804;2022-11-20T15:15:20;-0.30;99.90
18839;DHT22;9548;56.920;14.804;2022-11-20T15:17:47;-0.30;99.90
18839;DHT22;9548;56.920;14.804;2022-11-20T15:20:16;-0.30;99.90
18839;DHT22;9548;56.920;14.804;2022-11-20T15:22:44;-0.20;99.90
18839;DHT22;9548;56.920;14.804;2022-11-20T15:25:12;-0.30;99.90
18839;DHT22;9548;56.920;14.804;2022-11-20T15:27:40;-0.30;99.90
18839;DHT22;9548;56.920;14.804;2022-11-20T15:30:13;-0.30;99.90
18839;DHT22;9548;56.920;14.804;2022-11-20T15:32:40;-0.30;99.90
18839;DHT22;9548;56.920;14.804;2022-11-20T15:35:08;-0.30;99.90
18839;DHT22;9548;56.920;14.804;2022-11-20T15:37:35;-0.30;99.90
18839;DHT22;9548;56.920;14.804;2022-11-20T15:40:04;-0.40;99.90
18839;DHT22;9548;56.920;14.804;2022-11-20T15:42:32;-0.30;99.90
18839;DHT22;9548;56.920;14.804;2022-11-20T15:44:59;-0.40;99.90
18839;DHT22;9548;56.920;14.804;2022-11-20T15:47:27;-0.40;99.90
18839;DHT22;9548;56.920;14.804;2022-11-20T15:49:55;-0.40;99.90
18839;DHT22;9548;56.920;14.804;2022-11-20T15:52:22;-0.50;99.90
18839;DHT22;9548;56.920;14.804;2022-11-20T15:54:49;-0.50;99.90
18839;DHT22;9548;56.920;14.804;2022-11-20T15:57:18;-0.50;99.90
18839;DHT22;9548;56.920;14.804;2022-11-20T15:59:45;-0.50;99.90